Time;durP1;ratioP1;P1;durP2;ratioP2;P2;SDS_P1;SDS_P2;PMS_P1;PMS_P2;Temp;Humidity;BMP_temperature;BMP_pressure;BME280_temperature;BME280_humidity;BME280_pressure;Samples;Min_cycle;Max_cycle;Signal;HPM_P1;HPM_P2
2023/10/08 00:00:43;;;;;;;5.82;1.70;;;15.90;99.90;;;;;;6270860;22;20850;-68
2023/10/08 00:03:09;;;;;;;7.78;2.10;;;15.90;99.90;;;;;;6270633;22;20348;-68
2023/10/08 00:05:36;;;;;;;7.70;1.80;;;15.90;99.90;;;;;;6271075;22;20372;-68
2023/10/08 00:08:03;;;;;;;8.57;2.45;;;15.80;99.90;;;;;;6270397;22;20356;-68
2023/10/08 00:10:28;;;;;;;9.57;1.77;;;15.80;99.90;;;;;;6271179;22;20380;-68
2023/10/08 00:12:55;;;;;;;6.53;2.00;;;15.60;99.90;;;;;;6270660;22;20414;-68
2023/10/08 00:15:25;;;;;;;7.27;1.90;;;15.70;99.90;;;;;;6271402;22;20361;-68
2023/10/08 00:17:50;;;;;;;5.95;1.80;;;15.70;99.90;;;;;;6271466;22;20356;-68
2023/10/08 00:20:25;;;;;;;7.10;2.20;;;15.80;99.90;;;;;;6271056;22;20368;-68
2023/10/08 00:22:54;;;;;;;6.57;2.30;;;15.80;99.90;;;;;;6271466;22;20348;-68
2023/10/08 00:25:20;;;;;;;9.10;2.13;;;15.80;1.00;;;;;;6271187;22;20443;-69
2023/10/08 00:27:45;;;;;;;5.73;1.60;;;15.70;1.00;;;;;;6270626;22;20399;-68
2023/10/08 00:30:17;;;;;;;10.50;2.60;;;15.60;1.00;;;;;;6270608;22;20879;-68
2023/10/08 00:32:43;;;;;;;6.78;1.70;;;15.60;1.00;;;;;;6270720;22;20353;-68
2023/10/08 00:35:13;;;;;;;9.50;2.42;;;15.50;1.00;;;;;;6270696;22;20363;-68
2023/10/08 00:37:42;;;;;;;7.53;2.07;;;15.50;1.00;;;;;;6270916;22;20365;-68
2023/10/08 00:40:14;;;;;;;8.68;1.65;;;15.50;1.00;;;;;;6271137;22;20365;-67
2023/10/08 00:42:45;;;;;;;7.47;2.55;;;15.50;1.00;;;;;;6270857;22;20371;-68
2023/10/08 00:45:14;;;;;;;6.40;1.90;;;15.70;99.90;;;;;;6270884;22;20410;-68
2023/10/08 00:47:43;;;;;;;7.40;2.10;;;15.80;99.90;;;;;;6270558;22;20360;-68
2023/10/08 00:50:19;;;;;;;8.03;2.17;;;15.90;99.90;;;;;;6270341;22;20419;-68
2023/10/08 00:52:57;;;;;;;7.60;2.05;;;15.80;99.90;;;;;;6271087;22;20361;-68
2023/10/08 00:55:28;;;;;;;9.52;2.03;;;15.80;99.90;;;;;;6271807;22;20396;-67
2023/10/08 00:57:57;;;;;;;13.63;3.07;;;15.90;99.90;;;;;;6270898;22;20622;-68
2023/10/08 01:00:32;;;;;;;7.40;2.25;;;15.90;99.90;;;;;;6270638;22;20804;-68
2023/10/08 01:03:01;;;;;;;10.63;2.25;;;15.90;99.90;;;;;;6270497;22;20348;-68
2023/10/08 01:05:42;;;;;;;6.90;2.30;;;15.80;99.90;;;;;;6270500;22;20406;-68
2023/10/08 01:08:08;;;;;;;7.40;2.00;;;15.70;99.90;;;;;;6270739;22;20380;-68
2023/10/08 01:10:35;;;;;;;8.18;1.85;;;15.60;99.90;;;;;;6269937;22;20457;-67
2023/10/08 01:13:07;;;;;;;6.80;1.92;;;15.70;99.90;;;;;;6269950;22;20819;-67
2023/10/08 01:15:35;;;;;;;8.13;2.33;;;15.70;99.90;;;;;;6270732;22;20410;-68
2023/10/08 01:18:06;;;;;;;6.85;2.03;;;15.70;99.90;;;;;;6270635;22;20388;-68
2023/10/08 01:23:13;;;;;;;7.38;1.90;;;15.80;99.90;;;;;;6270158;22;20404;-68
2023/10/08 01:25:40;;;;;;;7.40;2.20;;;15.80;99.90;;;;;;6270488;22;20364;-68
2023/10/08 01:28:14;;;;;;;6.10;1.70;;;15.70;99.90;;;;;;6243970;22;20836;-68
2023/10/08 01:30:41;;;;;;;8.82;1.90;;;15.70;1.00;;;;;;6270691;22;20384;-68
2023/10/08 01:33:11;;;;;;;7.60;2.63;;;15.60;1.00;;;;;;6270754;22;20387;-68
2023/10/08 01:35:38;;;;;;;6.63;2.20;;;15.50;1.00;;;;;;6270800;22;20367;-68
2023/10/08 01:38:06;;;;;;;6.50;1.90;;;15.40;1.00;;;;;;6271417;22;20426;-68
2023/10/08 01:40:32;;;;;;;8.38;2.22;;;15.40;1.00;;;;;;6271574;22;20360;-68
2023/10/08 01:43:00;;;;;;;10.20;2.30;;;15.40;1.00;;;;;;6271915;22;20372;-68
2023/10/08 01:45:26;;;;;;;7.78;2.40;;;15.50;1.00;;;;;;6272128;22;20356;-68
2023/10/08 01:47:54;;;;;;;7.70;1.95;;;15.40;1.00;;;;;;6272089;22;20371;-68
2023/10/08 01:50:29;;;;;;;6.20;1.90;;;15.40;1.00;;;;;;6272110;22;20410;-68
2023/10/08 01:52:55;;;;;;;12.57;2.17;;;15.20;1.00;;;;;;6272183;22;20364;-68
2023/10/08 01:55:22;;;;;;;6.80;1.70;;;15.00;1.00;;;;;;6272242;22;20370;-67
2023/10/08 01:57:51;;;;;;;6.30;2.10;;;14.80;1.00;;;;;;6271458;22;20357;-68
2023/10/08 02:00:20;;;;;;;12.68;2.40;;;14.80;1.00;;;;;;6271531;22;20444;-68
2023/10/08 02:02:50;;;;;;;6.38;1.50;;;14.80;1.00;;;;;;6271229;22;20477;-68
2023/10/08 02:05:18;;;;;;;8.25;2.47;;;14.90;1.00;;;;;;6271806;22;20384;-68
2023/10/08 02:07:45;;;;;;;7.22;2.00;;;15.00;99.90;;;;;;6272379;22;20348;-68
2023/10/08 02:10:11;;;;;;;6.15;1.80;;;15.00;1.00;;;;;;6271851;22;20420;-67
2023/10/08 02:12:41;;;;;;;9.23;2.20;;;15.00;1.00;;;;;;6271642;22;20364;-68
2023/10/08 02:15:07;;;;;;;7.40;1.70;;;14.90;1.00;;;;;;6271660;22;20360;-68
2023/10/08 02:17:33;;;;;;;9.75;2.47;;;14.90;1.00;;;;;;6271576;22;20443;-68
2023/10/08 02:20:04;;;;;;;5.90;1.63;;;14.90;1.00;;;;;;6271619;22;20371;-68
2023/10/08 02:22:30;;;;;;;7.40;2.00;;;14.80;1.00;;;;;;6271859;22;21399;-68
2023/10/08 02:25:01;;;;;;;7.03;1.60;;;14.90;1.00;;;;;;6271461;22;20784;-67
2023/10/08 02:27:31;;;;;;;10.77;2.30;;;14.80;1.00;;;;;;6271732;22;20376;-68
2023/10/08 02:29:56;;;;;;;6.53;1.88;;;14.70;1.00;;;;;;6271109;22;20501;-68
2023/10/08 02:32:22;;;;;;;6.03;1.67;;;14.60;1.00;;;;;;6272466;22;20403;-67
2023/10/08 02:34:51;;;;;;;7.00;1.70;;;14.50;1.00;;;;;;6271948;22;20378;-67
2023/10/08 02:37:19;;;;;;;7.87;1.87;;;14.40;1.00;;;;;;6271251;22;20365;-67
2023/10/08 02:39:44;;;;;;;7.63;1.90;;;14.40;2.90;;;;;;6271620;22;20448;-67
2023/10/08 02:42:14;;;;;;;6.80;2.30;;;14.30;6.90;;;;;;6271174;22;20353;-68
2023/10/08 02:44:41;;;;;;;6.38;2.20;;;14.30;99.90;;;;;;6243590;22;20394;-68
2023/10/08 02:47:09;;;;;;;10.07;1.85;;;14.10;99.90;;;;;;6270824;22;20356;-68
2023/10/08 02:49:36;;;;;;;7.55;2.42;;;14.00;99.90;;;;;;6271668;22;20684;-68
2023/10/08 02:52:04;;;;;;;8.60;2.20;;;14.00;99.90;;;;;;6271214;22;20356;-68
2023/10/08 02:54:36;;;;;;;10.13;2.13;;;14.10;99.90;;;;;;6271653;22;20360;-68
2023/10/08 02:57:04;;;;;;;7.38;1.85;;;14.00;99.90;;;;;;6271157;22;20405;-68
2023/10/08 02:59:44;;;;;;;7.53;2.07;;;13.90;99.90;;;;;;6271208;22;20816;-69
2023/10/08 03:02:21;;;;;;;7.30;1.95;;;13.80;99.90;;;;;;6271662;22;20371;-68
2023/10/08 03:04:50;;;;;;;8.52;2.13;;;13.80;99.90;;;;;;6271411;22;21133;-68
2023/10/08 03:07:26;;;;;;;7.47;2.35;;;13.90;10.30;;;;;;6270153;22;20368;-68
2023/10/08 03:10:03;;;;;;;5.78;1.80;;;13.90;99.90;;;;;;6270799;22;20404;-68
2023/10/08 03:12:32;;;;;;;8.85;1.80;;;13.80;99.90;;;;;;6270173;22;20356;-68
2023/10/08 03:15:02;;;;;;;7.25;1.27;;;13.70;99.90;;;;;;6270055;22;20736;-66
2023/10/08 03:17:29;;;;;;;6.10;2.08;;;13.70;1.00;;;;;;6270831;22;20772;-68
2023/10/08 03:20:01;;;;;;;5.82;1.65;;;13.70;1.00;;;;;;6271924;22;20696;-68
2023/10/08 03:22:33;;;;;;;8.10;1.70;;;13.70;1.00;;;;;;6271363;22;20355;-68
2023/10/08 03:25:14;;;;;;;7.63;1.55;;;13.70;1.00;;;;;;6271519;22;20420;-68
2023/10/08 03:27:41;;;;;;;6.78;1.55;;;13.60;1.00;;;;;;6271238;22;20368;-68
2023/10/08 03:30:13;;;;;;;7.40;1.83;;;13.60;1.00;;;;;;6271393;22;20487;-68
2023/10/08 03:32:41;;;;;;;6.75;1.85;;;13.70;1.00;;;;;;6271230;22;20682;-68
2023/10/08 03:35:10;;;;;;;8.52;2.45;;;13.60;1.00;;;;;;6271325;22;20371;-68
2023/10/08 03:37:41;;;;;;;7.60;1.90;;;13.50;1.00;;;;;;6271451;22;20443;-68
2023/10/08 03:40:25;;;;;;;5.85;1.85;;;13.50;1.00;;;;;;6271623;22;20375;-68
2023/10/08 03:42:55;;;;;;;7.75;1.92;;;13.50;1.00;;;;;;6271809;22;20463;-69
2023/10/08 03:48:08;;;;;;;9.05;2.58;;;13.50;15.90;;;;;;6271157;22;20429;-68
2023/10/08 03:50:41;;;;;;;7.80;1.90;;;13.40;1.00;;;;;;6270731;22;20379;-68
2023/10/08 03:53:11;;;;;;;7.88;2.15;;;13.50;1.00;;;;;;6270644;22;20395;-68
2023/10/08 03:55:43;;;;;;;7.85;2.38;;;13.60;99.90;;;;;;6271379;22;20360;-68
2023/10/08 03:58:27;;;;;;;9.30;2.55;;;13.60;99.90;;;;;;6271549;22;20430;-68
2023/10/08 04:01:08;;;;;;;8.00;2.35;;;13.60;99.90;;;;;;6271757;22;20650;-68
2023/10/08 04:03:57;;;;;;;6.20;1.70;;;13.50;99.90;;;;;;6271174;22;20703;-66
2023/10/08 04:06:28;;;;;;;6.53;1.65;;;13.50;1.00;;;;;;6271746;22;20803;-67
2023/10/08 04:11:51;;;;;;;8.27;2.22;;;13.50;99.90;;;;;;6275472;22;20740;-67
2023/10/08 04:14:21;;;;;;;8.23;2.50;;;13.60;99.90;;;;;;6271188;22;20693;-67
2023/10/08 04:16:51;;;;;;;7.57;2.00;;;13.50;1.00;;;;;;6270723;22;20409;-67
2023/10/08 04:19:18;;;;;;;6.63;1.80;;;13.40;1.00;;;;;;6271134;22;20399;-67
2023/10/08 04:21:44;;;;;;;9.52;1.70;;;13.20;1.00;;;;;;6270663;22;20356;-67
2023/10/08 04:24:11;;;;;;;6.40;1.60;;;13.20;1.00;;;;;;6271210;22;20415;-68
2023/10/08 04:26:40;;;;;;;8.40;2.50;;;13.20;42.00;;;;;;6271337;22;20816;-68
2023/10/08 04:29:06;;;;;;;9.07;2.53;;;13.20;99.90;;;;;;6270679;22;20363;-68
2023/10/08 04:31:46;;;;;;;6.22;1.50;;;13.30;99.90;;;;;;6271062;22;20380;-67
2023/10/08 04:34:15;;;;;;;6.13;1.67;;;13.40;1.00;;;;;;6270999;22;20492;-67
2023/10/08 04:36:45;;;;;;;7.32;2.30;;;13.50;99.90;;;;;;6270719;22;20374;-68
2023/10/08 04:39:15;;;;;;;8.67;2.30;;;13.60;1.00;;;;;;6271330;22;20731;-68
2023/10/08 04:41:45;;;;;;;6.20;2.20;;;13.60;1.00;;;;;;6271325;22;20426;-68
2023/10/08 04:44:16;;;;;;;8.77;2.47;;;13.60;1.00;;;;;;6282714;22;20464;-67
2023/10/08 04:46:46;;;;;;;9.57;2.33;;;13.50;1.00;;;;;;6288323;22;20413;-67
2023/10/08 04:49:27;;;;;;;7.20;2.30;;;13.40;99.90;;;;;;6284727;22;20361;-68
2023/10/08 04:52:08;;;;;;;8.85;2.58;;;13.30;99.90;;;;;;6274999;22;20399;-68
2023/10/08 04:54:40;;;;;;;5.72;2.08;;;13.30;1.00;;;;;;6274962;22;20715;-67
2023/10/08 04:57:06;;;;;;;7.65;2.40;;;13.20;99.90;;;;;;6274221;22;20364;-67
2023/10/08 04:59:33;;;;;;;7.25;1.90;;;13.10;99.90;;;;;;6275701;22;20371;-67
2023/10/08 05:02:34;;;;;;;9.67;2.30;;;13.10;1.00;;;;;;6274986;22;20376;-67
2023/10/08 05:15:36;;;;;;;9.88;2.22;;;13.10;35.50;;;;;;6274673;22;20367;-68
2023/10/08 05:18:23;;;;;;;8.13;2.03;;;13.10;1.00;;;;;;6274306;22;20356;-67
2023/10/08 05:28:35;;;;;;;8.32;2.15;;;12.90;99.90;;;;;;6276299;22;20360;-68
2023/10/08 05:36:34;;;;;;;6.68;2.35;;;12.90;99.90;;;;;;6271572;22;20864;-68
2023/10/08 05:42:05;;;;;;;6.55;2.08;;;12.90;99.90;;;;;;6272299;22;20672;-67
2023/10/08 05:44:45;;;;;;;6.25;1.88;;;12.90;99.90;;;;;;6271879;22;20393;-67
2023/10/08 05:49:53;;;;;;;13.15;1.90;;;13.00;99.90;;;;;;6271541;22;20459;-68
2023/10/08 05:52:26;;;;;;;9.25;2.63;;;13.00;99.90;;;;;;6271938;22;20368;-68
2023/10/08 05:55:14;;;;;;;7.68;2.13;;;13.20;99.90;;;;;;6272446;22;20714;-69
2023/10/08 05:57:40;;;;;;;8.73;2.08;;;13.30;99.90;;;;;;6272477;22;20379;-69
2023/10/08 06:13:04;;;;;;;8.63;1.55;;;13.90;99.90;;;;;;6276139;22;20459;-68
2023/10/08 06:18:25;;;;;;;7.80;2.28;;;14.00;99.90;;;;;;6273022;22;20439;-68
2023/10/08 06:20:55;;;;;;;7.47;1.70;;;14.00;1.00;;;;;;6271927;22;20360;-68
2023/10/08 06:23:25;;;;;;;6.25;1.75;;;14.10;99.90;;;;;;6271851;22;20356;-68
2023/10/08 06:25:58;;;;;;;8.52;1.73;;;14.20;99.90;;;;;;6272825;22;20364;-69
2023/10/08 06:28:25;;;;;;;5.88;1.88;;;14.30;99.90;;;;;;6272098;22;20357;-68
2023/10/08 06:31:17;;;;;;;7.40;2.10;;;14.40;99.90;;;;;;6272903;22;20384;-68
2023/10/08 06:33:44;;;;;;;7.70;2.03;;;14.40;99.90;;;;;;6271775;22;20380;-67
2023/10/08 06:38:38;;;;;;;5.32;1.50;;;14.20;99.90;;;;;;6272551;22;20673;-67
2023/10/08 06:43:43;;;;;;;12.65;2.15;;;14.60;99.90;;;;;;6280899;22;20461;-67
2023/10/08 06:46:12;;;;;;;8.52;1.60;;;14.60;1.00;;;;;;6271951;22;20361;-67
2023/10/08 06:48:41;;;;;;;6.55;2.20;;;14.70;99.90;;;;;;6271299;22;20854;-68
2023/10/08 06:51:12;;;;;;;6.50;2.10;;;14.80;1.00;;;;;;6244665;22;20928;-68
2023/10/08 06:53:41;;;;;;;7.20;1.98;;;15.10;99.90;;;;;;6272230;22;20369;-68
2023/10/08 06:56:09;;;;;;;7.03;1.83;;;15.40;99.90;;;;;;6272058;22;20363;-68
2023/10/08 06:58:35;;;;;;;7.20;2.80;;;16.00;99.90;;;;;;6271324;22;20360;-68
2023/10/08 07:01:08;;;;;;;7.43;2.07;;;16.60;1.00;;;;;;6271667;22;20416;-68
2023/10/08 07:03:37;;;;;;;8.40;2.47;;;17.50;1.00;;;;;;6270819;22;20364;-68
2023/10/08 07:06:16;;;;;;;9.35;2.80;;;19.00;1.00;;;;;;6270931;22;20368;-69
2023/10/08 07:08:43;;;;;;;9.60;3.10;;;19.70;99.90;;;;;;6271735;22;20352;-68
2023/10/08 07:11:11;;;;;;;9.05;3.03;;;20.00;99.90;;;;;;6271931;22;20464;-69
2023/10/08 07:13:39;;;;;;;6.43;1.93;;;20.80;99.90;;;;;;6271213;22;20356;-69
2023/10/08 07:16:06;;;;;;;7.75;2.80;;;21.00;99.90;;;;;;6270597;22;20367;-69
2023/10/08 07:18:33;;;;;;;7.30;2.55;;;20.50;99.90;;;;;;6270437;22;20451;-69
2023/10/08 07:21:11;;;;;;;10.18;3.28;;;19.60;99.90;;;;;;6271041;22;20717;-69
2023/10/08 07:23:53;;;;;;;9.73;2.72;;;19.20;99.90;;;;;;6271311;22;20348;-69
2023/10/08 07:26:23;;;;;;;11.80;3.20;;;19.00;99.90;;;;;;6272132;22;20368;-69
2023/10/08 07:28:51;;;;;;;6.75;2.33;;;18.60;99.90;;;;;;6272225;22;20831;-69
2023/10/08 07:31:28;;;;;;;8.23;2.22;;;18.10;99.90;;;;;;6271341;22;20487;-69
2023/10/08 07:34:15;;;;;;;8.13;2.40;;;18.10;99.90;;;;;;6271998;22;20391;-69
2023/10/08 07:36:47;;;;;;;8.80;2.20;;;18.10;99.90;;;;;;6271938;22;20344;-69
2023/10/08 07:39:26;;;;;;;7.20;1.85;;;18.10;99.90;;;;;;6271751;22;20364;-68
2023/10/08 07:41:56;;;;;;;7.72;2.20;;;18.10;99.90;;;;;;6272641;22;20721;-68
2023/10/08 07:44:24;;;;;;;7.20;2.45;;;18.30;99.90;;;;;;6245688;22;20437;-69
2023/10/08 07:46:50;;;;;;;10.30;1.93;;;18.40;99.90;;;;;;6272397;22;20507;-69
2023/10/08 07:49:16;;;;;;;6.80;2.10;;;18.40;99.90;;;;;;6271859;22;20410;-69
2023/10/08 07:51:50;;;;;;;9.88;2.67;;;18.50;99.90;;;;;;6271629;22;20971;-69
2023/10/08 07:54:22;;;;;;;8.55;2.40;;;18.80;99.90;;;;;;6271884;22;20837;-69
2023/10/08 07:56:48;;;;;;;8.75;2.40;;;18.90;99.90;;;;;;6245695;22;20853;-68
2023/10/08 07:59:16;;;;;;;8.70;2.20;;;19.10;99.90;;;;;;6270669;22;20375;-69
2023/10/08 08:01:43;;;;;;;5.90;1.80;;;19.30;99.90;;;;;;6270865;22;20888;-69
2023/10/08 08:04:11;;;;;;;6.63;1.80;;;19.40;99.90;;;;;;6271506;22;20360;-69
2023/10/08 08:06:39;;;;;;;6.32;1.35;;;19.70;99.90;;;;;;6269349;22;20425;-69
2023/10/08 08:09:17;;;;;;;8.60;2.25;;;20.00;99.90;;;;;;6271129;22;20380;-70
2023/10/08 08:11:45;;;;;;;7.75;2.45;;;20.40;99.90;;;;;;6271887;22;21038;-69
2023/10/08 08:14:11;;;;;;;7.30;2.33;;;21.50;99.90;;;;;;6244135;22;20360;-69
2023/10/08 08:16:37;;;;;;;10.00;2.53;;;22.30;99.90;;;;;;6271776;22;20391;-69
2023/10/08 08:19:03;;;;;;;8.82;2.35;;;23.00;1.00;;;;;;6271907;22;20364;-69
2023/10/08 08:21:30;;;;;;;6.90;2.10;;;24.00;1.00;;;;;;6271445;22;20374;-69
2023/10/08 08:24:05;;;;;;;9.02;2.10;;;24.80;1.00;;;;;;6271480;22;20392;-69
2023/10/08 08:26:32;;;;;;;8.40;2.42;;;26.40;1.00;;;;;;6270480;22;20439;-70
2023/10/08 08:28:59;;;;;;;6.35;1.83;;;;;;;;;;6271369;22;20387;-69
2023/10/08 08:31:26;;;;;;;8.55;2.03;;;;;;;;;;6271413;22;20895;-69
2023/10/08 08:33:53;;;;;;;8.15;2.40;;;29.70;99.90;;;;;;6271646;22;20353;-71
2023/10/08 08:36:20;;;;;;;8.13;1.93;;;30.40;99.90;;;;;;6271774;22;20459;-69
2023/10/08 08:40:41;;;;;;;8.48;2.60;;;31.30;99.90;;;;;;5086751;28;20907;-70
2023/10/08 08:43:08;;;;;;;11.15;2.80;;;32.10;99.90;;;;;;5089493;28;20490;-69
2023/10/08 08:45:35;;;;;;;9.30;2.22;;;32.30;99.90;;;;;;5086298;28;20386;-70
2023/10/08 08:48:01;;;;;;;6.97;1.88;;;32.80;99.90;;;;;;5090361;28;20474;-68
2023/10/08 08:50:27;;;;;;;7.82;2.00;;;33.50;99.90;;;;;;5086317;28;20451;-70
2023/10/08 08:52:53;;;;;;;11.52;2.30;;;33.40;99.90;;;;;;5086063;28;20455;-70
2023/10/08 08:55:20;;;;;;;6.87;2.20;;;33.30;99.90;;;;;;5091375;28;20911;-70
2023/10/08 08:57:50;;;;;;;7.72;2.20;;;34.00;99.90;;;;;;5085099;28;20413;-71
2023/10/08 09:00:18;;;;;;;7.37;1.93;;;33.70;99.90;;;;;;5095572;28;20517;-70
2023/10/08 09:02:47;;;;;;;7.20;1.95;;;32.70;99.90;;;;;;5087892;28;20466;-70
2023/10/08 09:05:13;;;;;;;7.88;2.08;;;31.30;99.90;;;;;;5097590;28;20394;-70
2023/10/08 09:08:05;;;;;;;8.33;2.00;;;30.50;99.90;;;;;;5097571;28;20792;-69
2023/10/08 09:10:50;;;;;;;7.25;2.13;;;30.50;99.90;;;;;;5084004;28;20773;-68
2023/10/08 09:13:20;;;;;;;8.18;1.90;;;30.80;99.90;;;;;;5092396;28;20395;-68
2023/10/08 09:15:46;;;;;;;6.78;1.65;;;30.90;99.90;;;;;;5089910;28;20415;-68
2023/10/08 09:18:14;;;;;;;7.28;1.90;;;30.30;99.90;;;;;;5099907;28;20463;-68
2023/10/08 09:20:43;;;;;;;6.82;1.77;;;28.90;99.90;;;;;;5104190;28;20822;-68
2023/10/08 09:23:14;;;;;;;9.00;2.33;;;28.50;99.90;;;;;;5085152;28;20406;-68
2023/10/08 09:25:40;;;;;;;7.50;2.08;;;28.60;99.90;;;;;;5087016;28;20494;-68
2023/10/08 09:28:12;;;;;;;8.40;1.90;;;29.00;99.90;;;;;;5085786;28;20745;-69
2023/10/08 09:30:39;;;;;;;7.67;1.90;;;29.00;99.90;;;;;;5086324;28;20395;-70
2023/10/08 09:33:17;;;;;;;6.82;1.80;;;29.20;99.90;;;;;;5086451;28;20407;-69
2023/10/08 09:35:45;;;;;;;7.75;1.50;;;29.10;99.90;;;;;;5085232;28;20387;-69
2023/10/08 09:38:15;;;;;;;6.88;2.20;;;29.00;99.90;;;;;;5086522;28;20390;-69
2023/10/08 09:40:41;;;;;;;8.20;2.40;;;28.60;99.90;;;;;;5068165;28;20778;-69
2023/10/08 09:43:10;;;;;;;7.05;1.90;;;27.80;99.90;;;;;;5086532;28;20386;-70
2023/10/08 09:45:41;;;;;;;7.95;2.35;;;26.80;99.90;;;;;;5086497;28;20449;-70
2023/10/08 09:48:14;;;;;;;7.55;1.60;;;26.30;99.90;;;;;;5086607;28;20414;-70
2023/10/08 09:50:41;;;;;;;6.85;1.92;;;26.00;99.90;;;;;;5080668;28;20391;-69
2023/10/08 09:53:19;;;;;;;7.65;2.45;;;25.80;99.90;;;;;;5072657;28;20878;-70
2023/10/08 09:55:56;;;;;;;7.05;1.90;;;25.80;99.90;;;;;;5070933;28;20400;-70
2023/10/08 09:58:29;;;;;;;8.70;1.70;;;25.60;99.90;;;;;;5073008;28;20467;-70
2023/10/08 10:00:57;;;;;;;7.83;2.10;;;25.40;99.90;;;;;;5072512;28;20403;-70
2023/10/08 10:03:26;;;;;;;6.80;1.60;;;25.40;99.90;;;;;;5073123;28;20392;-70
2023/10/08 10:05:54;;;;;;;9.40;1.80;;;25.30;99.90;;;;;;5072886;28;20751;-70
2023/10/08 10:08:24;;;;;;;8.60;1.87;;;25.20;99.90;;;;;;5072891;28;20391;-70
2023/10/08 10:10:58;;;;;;;7.10;1.83;;;25.50;99.90;;;;;;5072856;28;20595;-70
2023/10/08 10:13:28;;;;;;;6.95;1.70;;;25.70;99.90;;;;;;5072000;28;20593;-70
2023/10/08 10:15:54;;;;;;;6.50;1.57;;;26.00;99.90;;;;;;5072440;28;20742;-70
2023/10/08 10:18:25;;;;;;;8.50;2.20;;;26.30;99.90;;;;;;5075501;28;20388;-70
2023/10/08 10:20:54;;;;;;;6.90;1.90;;;26.60;99.90;;;;;;5072330;28;20901;-70
2023/10/08 10:23:43;;;;;;;7.65;2.17;;;26.60;99.90;;;;;;5072235;28;20380;-70
2023/10/08 10:26:28;;;;;;;6.82;1.92;;;26.50;99.90;;;;;;5071507;28;20463;-70
2023/10/08 10:29:14;;;;;;;7.80;1.80;;;26.00;99.90;;;;;;5071453;28;20383;-70
2023/10/08 10:31:54;;;;;;;7.30;1.73;;;26.00;99.90;;;;;;5070495;28;20403;-70
2023/10/08 10:34:30;;;;;;;6.80;1.80;;;26.70;99.90;;;;;;5072310;28;20392;-70
2023/10/08 10:37:19;;;;;;;8.03;2.10;;;27.00;99.90;;;;;;5071817;28;20453;-70
2023/10/08 10:39:52;;;;;;;6.80;1.88;;;27.50;99.90;;;;;;5083257;28;20426;-70
2023/10/08 10:42:22;;;;;;;6.80;2.10;;;27.60;99.90;;;;;;5103843;28;20382;-70
2023/10/08 10:44:53;;;;;;;6.53;1.67;;;28.40;99.90;;;;;;5092057;28;20429;-70
2023/10/08 10:52:44;;;;;;;7.22;1.80;;;30.20;99.90;;;;;;5092124;28;20398;-70
2023/10/08 10:58:06;;;;;;;8.00;1.90;;;29.40;99.90;;;;;;5100666;28;20715;-70
2023/10/08 11:03:15;;;;;;;7.03;1.90;;;29.80;99.90;;;;;;5103616;28;20409;-70
2023/10/08 11:05:47;;;;;;;6.72;1.60;;;29.50;99.90;;;;;;5102468;28;20395;-69
2023/10/08 11:08:15;;;;;;;7.45;2.00;;;29.30;99.90;;;;;;5102096;28;20455;-69
2023/10/08 11:10:49;;;;;;;6.60;1.77;;;29.80;99.90;;;;;;5093174;28;20404;-71
2023/10/08 11:13:15;;;;;;;9.70;2.10;;;30.30;99.90;;;;;;5077614;28;20404;-71
2023/10/08 11:15:49;;;;;;;7.10;2.03;;;30.00;99.90;;;;;;5095883;28;20392;-70
2023/10/08 11:18:16;;;;;;;10.00;2.07;;;29.70;99.90;;;;;;5104876;28;20495;-69
2023/10/08 11:20:45;;;;;;;7.93;1.80;;;29.70;99.90;;;;;;5107540;28;20390;-70
2023/10/08 11:23:33;;;;;;;8.02;1.40;;;29.80;99.90;;;;;;5099022;28;20396;-70
2023/10/08 11:26:02;;;;;;;7.03;1.75;;;29.90;99.90;;;;;;5092846;28;20405;-70
2023/10/08 11:28:41;;;;;;;8.80;1.83;;;29.30;99.90;;;;;;5093243;28;20408;-70
2023/10/08 11:31:08;;;;;;;8.02;1.95;;;29.20;99.90;;;;;;5093646;28;20731;-70
2023/10/08 11:33:36;;;;;;;6.57;1.65;;;28.80;99.90;;;;;;5106703;28;20489;-70
2023/10/08 11:36:07;;;;;;;6.75;1.80;;;28.80;99.90;;;;;;5095106;28;20476;-70
2023/10/08 11:38:39;;;;;;;9.43;1.52;;;29.00;99.90;;;;;;5109711;28;20399;-69
2023/10/08 11:41:21;;;;;;;9.85;2.28;;;29.20;99.90;;;;;;5103364;28;20382;-68
2023/10/08 11:43:53;;;;;;;7.57;1.92;;;29.20;99.90;;;;;;5094184;28;20441;-69
2023/10/08 11:46:40;;;;;;;8.80;1.98;;;29.30;99.90;;;;;;5105002;28;20980;-69
2023/10/08 11:49:06;;;;;;;6.25;1.85;;;29.50;99.90;;;;;;5080270;28;20433;-69
2023/10/08 11:51:33;;;;;;;7.97;2.03;;;29.30;99.90;;;;;;5086268;28;20887;-69
2023/10/08 11:54:04;;;;;;;7.15;1.80;;;29.20;99.90;;;;;;5106554;28;20888;-69
2023/10/08 11:56:32;;;;;;;10.10;2.05;;;29.10;99.90;;;;;;5099875;28;20392;-68
2023/10/08 11:58:57;;;;;;;10.18;2.25;;;29.30;99.90;;;;;;5095577;28;20420;-69
2023/10/08 12:01:27;;;;;;;7.37;1.50;;;29.50;99.90;;;;;;5100454;28;20381;-69
2023/10/08 12:03:59;;;;;;;8.75;1.90;;;29.60;99.90;;;;;;5085236;28;21304;-70
2023/10/08 12:06:25;;;;;;;7.28;1.30;;;29.20;99.90;;;;;;5094086;28;20409;-70
2023/10/08 12:08:53;;;;;;;10.43;2.53;;;28.90;99.90;;;;;;5087457;28;20399;-70
2023/10/08 12:11:19;;;;;;;8.38;2.08;;;28.80;99.90;;;;;;5102340;28;20393;-70
2023/10/08 12:13:45;;;;;;;6.87;2.00;;;29.00;99.90;;;;;;5084818;28;20395;-70
2023/10/08 12:16:23;;;;;;;7.63;1.70;;;29.00;99.90;;;;;;5098019;28;20400;-71
2023/10/08 12:18:53;;;;;;;9.93;1.85;;;28.90;99.90;;;;;;5073331;28;20474;-70
2023/10/08 12:21:20;;;;;;;6.78;2.03;;;28.80;99.90;;;;;;5092305;28;20489;-70
2023/10/08 12:23:46;;;;;;;10.50;2.30;;;28.60;99.90;;;;;;5084642;28;20805;-70
2023/10/08 12:26:15;;;;;;;8.50;2.20;;;28.70;99.90;;;;;;5094834;28;20793;-70
2023/10/08 12:28:44;;;;;;;6.47;1.90;;;28.90;99.90;;;;;;5070881;28;20396;-70
2023/10/08 12:31:11;;;;;;;10.57;2.40;;;28.90;99.90;;;;;;5062810;28;20394;-67
2023/10/08 12:33:37;;;;;;;14.07;2.37;;;28.70;99.90;;;;;;5092780;28;20392;-67
2023/10/08 12:36:10;;;;;;;10.00;2.22;;;28.80;99.90;;;;;;5101573;28;20748;-70
2023/10/08 12:38:37;;;;;;;7.93;1.90;;;28.90;99.90;;;;;;5093595;28;20396;-70
2023/10/08 12:41:11;;;;;;;8.25;2.20;;;29.10;99.90;;;;;;5070171;28;20775;-70
2023/10/08 12:43:52;;;;;;;6.63;2.15;;;29.20;99.90;;;;;;5105538;28;20390;-70
2023/10/08 12:46:18;;;;;;;9.88;2.20;;;29.20;99.90;;;;;;5090330;28;20455;-70
2023/10/08 12:48:47;;;;;;;9.32;2.10;;;29.30;99.90;;;;;;5084090;28;20923;-70
2023/10/08 12:51:14;;;;;;;10.60;2.60;;;29.20;99.90;;;;;;5077326;28;20405;-70
2023/10/08 12:53:50;;;;;;;8.82;2.10;;;29.20;99.90;;;;;;5114194;28;20846;-70
2023/10/08 12:56:16;;;;;;;8.32;1.92;;;29.50;99.90;;;;;;5098554;28;20737;-70
2023/10/08 12:58:47;;;;;;;13.73;2.38;;;29.40;99.90;;;;;;5080348;28;20421;-70
2023/10/08 13:01:17;;;;;;;14.98;1.80;;;29.30;99.90;;;;;;5099704;28;20401;-70
2023/10/08 13:03:47;;;;;;;8.90;2.30;;;29.00;99.90;;;;;;5101139;28;20908;-68
2023/10/08 13:06:23;;;;;;;10.00;2.50;;;28.90;99.90;;;;;;5098244;28;20389;-70
2023/10/08 13:08:53;;;;;;;9.38;2.15;;;29.00;99.90;;;;;;5097165;28;20389;-68
2023/10/08 13:11:29;;;;;;;8.43;2.70;;;28.90;99.90;;;;;;5076500;28;20395;-72
2023/10/08 13:13:59;;;;;;;8.73;2.10;;;28.80;99.90;;;;;;5076709;28;20451;-72
2023/10/08 13:16:30;;;;;;;11.88;2.35;;;28.90;99.90;;;;;;5078441;28;20394;-68
2023/10/08 13:18:58;;;;;;;6.53;1.75;;;29.10;99.90;;;;;;5072776;28;21590;-68
2023/10/08 13:21:28;;;;;;;7.85;2.00;;;29.30;99.90;;;;;;5088388;28;20415;-69
2023/10/08 13:24:00;;;;;;;7.38;1.85;;;29.10;99.90;;;;;;5100015;28;20401;-70
2023/10/08 13:26:30;;;;;;;10.55;1.90;;;28.80;99.90;;;;;;5082102;28;20891;-70
2023/10/08 13:29:18;;;;;;;8.02;2.55;;;28.70;99.90;;;;;;5097276;28;20455;-70
2023/10/08 13:31:45;;;;;;;7.40;2.20;;;28.70;99.90;;;;;;5092594;28;20398;-71
2023/10/08 13:34:12;;;;;;;9.43;1.90;;;28.50;99.90;;;;;;5098735;28;20912;-70
2023/10/08 13:36:38;;;;;;;7.65;1.45;;;28.30;99.90;;;;;;5099231;28;20515;-69
2023/10/08 13:39:18;;;;;;;8.50;1.90;;;28.30;99.90;;;;;;5098981;28;20408;-70
2023/10/08 13:41:47;;;;;;;10.00;2.03;;;28.50;99.90;;;;;;5098639;28;20450;-70
2023/10/08 13:44:13;;;;;;;8.35;2.05;;;28.50;99.90;;;;;;5100913;28;21099;-70
2023/10/08 13:46:43;;;;;;;7.35;2.30;;;28.50;99.90;;;;;;5100364;28;20419;-70
2023/10/08 13:49:10;;;;;;;9.70;2.17;;;28.30;99.90;;;;;;5102735;28;20479;-70
2023/10/08 13:51:37;;;;;;;10.20;2.20;;;28.40;99.90;;;;;;5101008;28;20374;-70
2023/10/08 13:54:09;;;;;;;9.30;2.60;;;28.30;99.90;;;;;;5101589;28;20483;-69
2023/10/08 13:56:37;;;;;;;7.33;1.40;;;28.20;99.90;;;;;;5098408;28;20928;-69
2023/10/08 13:59:04;;;;;;;8.20;2.00;;;28.10;99.90;;;;;;5101211;28;20408;-70
2023/10/08 14:01:34;;;;;;;11.55;2.00;;;27.80;99.90;;;;;;5088296;28;20428;-71
2023/10/08 14:04:05;;;;;;;11.45;2.50;;;27.70;99.90;;;;;;5092773;28;20405;-71
2023/10/08 14:06:35;;;;;;;7.82;1.60;;;27.80;99.90;;;;;;5081166;28;20451;-71
2023/10/08 14:09:06;;;;;;;10.30;2.00;;;27.80;99.90;;;;;;5079275;28;20611;-71
2023/10/08 14:11:33;;;;;;;8.75;2.22;;;27.60;99.90;;;;;;5090979;28;20382;-71
2023/10/08 14:14:02;;;;;;;8.57;2.10;;;27.40;99.90;;;;;;5093975;28;20393;-71
2023/10/08 14:16:28;;;;;;;8.02;1.80;;;27.50;99.90;;;;;;5091906;28;20460;-71